Sunday, January 20, 2019, 1:58 AM EST
Back to Local

KRKD, Rockland, Knox County Regional Airport

Location: Owls Head, ME, United States Lat: 44.067
Local Time: 1:58 AM EST ( 6:58 GMT) Lon: -69.1
Time Zone: US/Eastern Elev: 55 ft

Show me the last for .
Show Decoded

2019-01-20 01:29 METAR KRKD 200629Z AUTO 03012G18KT 1 1/4SM -SN BR OVC009 M11/M13 A3024 RMK AO2
                 CIG 007V012 P0000 FZRANO =
2019-01-20 00:56 METAR KRKD 200556Z AUTO 04010G17KT 1SM -SN BR OVC009 M11/M12 A3025 RMK AO2 CIG
                 005V013 SLP245 P0000 60000 T11061122 11089 21106 56023 FZRANO =
2019-01-20 00:53 METAR KRKD 200553Z AUTO 04011G17KT 1 1/4SM -SN BR OVC009 M11/M13 A3025 RMK AO2
                 CIG 005V013 P0000 FZRANO =
2019-01-20 00:38 METAR KRKD 200538Z AUTO 04011KT 1SM -SN BR BKN009 OVC019 M11/M12 A3025 RMK AO2
                 CIG 007V012 P0000 FZRANO =
2019-01-20 00:30 METAR KRKD 200530Z AUTO 04010G17KT 1 3/4SM -SN BR FEW009 BKN014 OVC019 M11/M13
                 A3025 RMK AO2 P0000 FZRANO =
2019-01-20 00:26 METAR KRKD 200526Z AUTO 05011G17KT 1 3/4SM -SN BR OVC019 M11/M13 A3026 RMK AO2
                 P0000 FZRANO =
2019-01-20 00:19 METAR KRKD 200519Z AUTO 05011KT 2SM -SN BR BKN014 OVC019 M11/M13 A3026 RMK AO2
                 P0000 FZRANO =
2019-01-19 23:56 METAR KRKD 200456Z AUTO 04009KT 1 1/2SM -SN BR OVC014 M11/M13 A3028 RMK AO2
                 SLP256 P0000 T11061128 410281106 FZRANO =
2019-01-19 23:38 METAR KRKD 200438Z AUTO 06013KT 2SM -SN BR OVC014 M11/M13 A3030 RMK AO2 P0000
                 FZRANO =
2019-01-19 22:56 METAR KRKD 200356Z AUTO 06010KT 2 1/2SM -SN SCT014 OVC020 M10/M13 A3032 RMK AO2
                 SLP268 P0000 T11001128 FZRANO =
2019-01-19 22:46 METAR KRKD 200346Z AUTO 07009G16KT 2 1/2SM -SN BR SCT014 OVC020 M10/M12 A3032
                 RMK AO2 P0000 FZRANO =
2019-01-19 22:30 METAR KRKD 200330Z AUTO 06011KT 3SM -SN BR BKN014 OVC022 M10/M12 A3032 RMK AO2
                 P0000 FZRANO =
2019-01-19 21:56 METAR KRKD 200256Z AUTO 05011KT 2 1/2SM -SN BR BKN016 OVC021 M10/M12 A3032 RMK
                 AO2 SLP271 P0000 60000 T11001122 58003 FZRANO =
2019-01-19 21:52 METAR KRKD 200252Z AUTO 04011KT 2 1/2SM -SN BR FEW012 BKN018 OVC031 M10/M12
                 A3033 RMK AO2 P0000 FZRANO =
2019-01-19 20:56 METAR KRKD 200156Z AUTO 04009G16KT 5SM -SN BKN037 OVC046 M09/M13 A3034 RMK AO2
                 SLP276 P0000 T10941128 FZRANO =
2019-01-19 19:56 METAR KRKD 200056Z AUTO 05011KT 9SM -SN FEW028 BKN036 OVC050 M09/M14 A3033 RMK
                 AO2 SNB31 SLP274 P0000 T10891144 FZRANO =
2019-01-19 18:56 METAR KRKD 192356Z AUTO 03010KT 10SM BKN055 BKN065 OVC085 M09/M16 A3035 RMK AO2
                 SLP280 T10891161 11078 21089 58001 FZRANO =
2019-01-19 17:56 METAR KRKD 192256Z AUTO 05008KT 10SM FEW050 OVC090 M09/M16 A3036 RMK AO2 SLP281
                 T10891156 FZRANO =
2019-01-19 16:56 METAR KRKD 192156Z AUTO VRB03KT 10SM OVC085 M09/M18 A3037 RMK AO2 SLP287
                 T10891178 FZRANO =
2019-01-19 15:56 METAR KRKD 192056Z AUTO 04006KT 10SM BKN090 M09/M18 A3035 RMK AO2 SLP281
                 T10891178 53006 FZRANO =
2019-01-19 14:56 METAR KRKD 191956Z AUTO 02007KT 10SM OVC100 M08/M17 A3032 RMK AO2 SLP269
                 T10831172 FZRANO =
2019-01-19 13:56 METAR KRKD 191856Z AUTO 03004KT 10SM CLR M08/M18 A3031 RMK AO2 SLP265 T10831183
                 FZRANO =
2019-01-19 12:56 METAR KRKD 191756Z AUTO 35005KT 10SM CLR M08/M22 A3034 RMK AO2 SLP275 T10781217
                 11078 21100 58003 FZRANO =
2019-01-19 11:56 METAR KRKD 191656Z AUTO 03007KT 10SM FEW120 M08/M20 A3034 RMK AO2 SLP277
                 T10781200 FZRANO =
2019-01-19 10:56 METAR KRKD 191556Z AUTO 35006KT 10SM CLR M08/M19 A3035 RMK AO2 SLP279 T10831194
                 FZRANO =
2019-01-19 09:56 METAR KRKD 191456Z AUTO VRB06KT 10SM CLR M09/M18 A3035 RMK AO2 SLP278 T10891183
                 51026 FZRANO =
2019-01-19 08:56 METAR KRKD 191356Z AUTO 34006KT 10SM CLR M09/M17 A3032 RMK AO2 SLP271 T10941167
                 FZRANO =
2019-01-19 07:56 METAR KRKD 191256Z AUTO VRB05KT 10SM CLR M09/M16 A3030 RMK AO2 SLP261 T10941156
                 FZRANO =
2019-01-19 06:56 METAR KRKD 191156Z AUTO VRB06KT 10SM CLR M09/M14 A3027 RMK AO2 SLP252 70001
                 T10891144 11028 21089 52028 FZRANO =
2019-01-19 05:56 METAR KRKD 191056Z AUTO 00000KT 10SM CLR M08/M14 A3024 RMK AO2 SLP241 T10781139
                 FZRANO =
2019-01-19 04:56 METAR KRKD 190956Z AUTO VRB04KT 10SM CLR M07/M14 A3022 RMK AO2 SLP236 T10721139
                 FZRANO =
2019-01-19 03:56 METAR KRKD 190856Z AUTO 34006KT 10SM CLR M06/M12 A3019 RMK AO2 SLP224 T10611117
                 51033 FZRANO =
2019-01-19 02:56 METAR KRKD 190756Z AUTO 32005KT 10SM CLR M04/M09 A3016 RMK AO2 SLP214 T10441094
                 FZRANO =

Support USWX by starting your Amazon purchase here.